sensor_id;sensor_type;location;lat;lon;timestamp;temperature;humidity
25937;DHT22;13733;51.178;4.450;2022-07-17T00:01:13;18.20;99.90
25937;DHT22;13733;51.178;4.450;2022-07-17T00:03:40;18.10;99.90
25937;DHT22;13733;51.178;4.450;2022-07-17T00:06:06;18.10;99.90
25937;DHT22;13733;51.178;4.450;2022-07-17T00:08:31;18.00;99.90
25937;DHT22;13733;51.178;4.450;2022-07-17T00:10:58;18.00;99.90
25937;DHT22;13733;51.178;4.450;2022-07-17T00:13:24;17.90;99.90
25937;DHT22;13733;51.178;4.450;2022-07-17T00:15:50;17.90;99.90
25937;DHT22;13733;51.178;4.450;2022-07-17T00:18:16;17.80;99.90
25937;DHT22;13733;51.178;4.450;2022-07-17T00:20:42;17.80;99.90
25937;DHT22;13733;51.178;4.450;2022-07-17T00:23:09;17.70;99.90
25937;DHT22;13733;51.178;4.450;2022-07-17T00:25:35;17.70;99.90
25937;DHT22;13733;51.178;4.450;2022-07-17T00:28:01;17.60;99.90
25937;DHT22;13733;51.178;4.450;2022-07-17T00:30:26;17.50;99.90
25937;DHT22;13733;51.178;4.450;2022-07-17T00:32:52;17.60;99.90
25937;DHT22;13733;51.178;4.450;2022-07-17T00:35:17;17.50;99.90
25937;DHT22;13733;51.178;4.450;2022-07-17T00:37:44;17.50;99.90
25937;DHT22;13733;51.178;4.450;2022-07-17T00:40:11;17.50;99.90
25937;DHT22;13733;51.178;4.450;2022-07-17T00:42:41;17.40;99.90
25937;DHT22;13733;51.178;4.450;2022-07-17T00:45:10;17.40;99.90
25937;DHT22;13733;51.178;4.450;2022-07-17T00:50:21;17.30;99.90
25937;DHT22;13733;51.178;4.450;2022-07-17T00:52:47;17.20;99.90
25937;DHT22;13733;51.178;4.450;2022-07-17T00:55:13;17.20;99.90
25937;DHT22;13733;51.178;4.450;2022-07-17T00:57:42;17.20;99.90
25937;DHT22;13733;51.178;4.450;2022-07-17T01:00:08;17.20;99.90
25937;DHT22;13733;51.178;4.450;2022-07-17T01:02:36;17.20;99.90
25937;DHT22;13733;51.178;4.450;2022-07-17T01:05:02;17.20;99.90
25937;DHT22;13733;51.178;4.450;2022-07-17T01:07:28;17.20;99.90
25937;DHT22;13733;51.178;4.450;2022-07-17T01:09:53;17.20;99.90
25937;DHT22;13733;51.178;4.450;2022-07-17T01:12:19;17.10;99.90
25937;DHT22;13733;51.178;4.450;2022-07-17T01:14:45;17.10;99.90
25937;DHT22;13733;51.178;4.450;2022-07-17T01:17:11;17.10;99.90
25937;DHT22;13733;51.178;4.450;2022-07-17T01:19:37;17.10;99.90
25937;DHT22;13733;51.178;4.450;2022-07-17T01:22:02;17.00;99.90
25937;DHT22;13733;51.178;4.450;2022-07-17T01:24:28;17.00;99.90
25937;DHT22;13733;51.178;4.450;2022-07-17T01:26:54;17.00;99.90
25937;DHT22;13733;51.178;4.450;2022-07-17T01:29:19;17.00;99.90
25937;DHT22;13733;51.178;4.450;2022-07-17T01:31:45;17.00;99.90
25937;DHT22;13733;51.178;4.450;2022-07-17T01:34:11;17.00;99.90
25937;DHT22;13733;51.178;4.450;2022-07-17T01:36:38;17.00;99.90
25937;DHT22;13733;51.178;4.450;2022-07-17T01:39:04;17.00;99.90
25937;DHT22;13733;51.178;4.450;2022-07-17T01:41:30;17.00;99.90
25937;DHT22;13733;51.178;4.450;2022-07-17T01:43:56;16.90;99.90
25937;DHT22;13733;51.178;4.450;2022-07-17T01:46:21;16.80;99.90
25937;DHT22;13733;51.178;4.450;2022-07-17T01:48:47;16.80;99.90
25937;DHT22;13733;51.178;4.450;2022-07-17T01:51:13;16.80;99.90
25937;DHT22;13733;51.178;4.450;2022-07-17T01:53:38;16.70;99.90
25937;DHT22;13733;51.178;4.450;2022-07-17T01:56:04;16.70;99.90
25937;DHT22;13733;51.178;4.450;2022-07-17T01:58:30;16.60;99.90
25937;DHT22;13733;51.178;4.450;2022-07-17T02:00:55;16.60;99.90
25937;DHT22;13733;51.178;4.450;2022-07-17T02:03:21;16.60;99.90
25937;DHT22;13733;51.178;4.450;2022-07-17T02:05:47;16.60;99.90
25937;DHT22;13733;51.178;4.450;2022-07-17T02:08:12;16.50;99.90
25937;DHT22;13733;51.178;4.450;2022-07-17T02:10:38;16.50;99.90
25937;DHT22;13733;51.178;4.450;2022-07-17T02:13:04;16.40;99.90
25937;DHT22;13733;51.178;4.450;2022-07-17T02:15:30;16.40;99.90
25937;DHT22;13733;51.178;4.450;2022-07-17T02:17:56;16.40;99.90
25937;DHT22;13733;51.178;4.450;2022-07-17T02:20:22;16.30;99.90
25937;DHT22;13733;51.178;4.450;2022-07-17T02:22:47;16.20;99.90
25937;DHT22;13733;51.178;4.450;2022-07-17T02:25:13;16.20;99.90
25937;DHT22;13733;51.178;4.450;2022-07-17T02:27:39;16.30;99.90
25937;DHT22;13733;51.178;4.450;2022-07-17T02:30:06;16.30;99.90
25937;DHT22;13733;51.178;4.450;2022-07-17T02:32:33;16.20;99.90
25937;DHT22;13733;51.178;4.450;2022-07-17T02:34:58;16.30;99.90
25937;DHT22;13733;51.178;4.450;2022-07-17T02:37:24;16.20;99.90
25937;DHT22;13733;51.178;4.450;2022-07-17T02:39:49;16.20;99.90
25937;DHT22;13733;51.178;4.450;2022-07-17T02:42:18;16.20;99.90
25937;DHT22;13733;51.178;4.450;2022-07-17T02:44:45;16.10;99.90
25937;DHT22;13733;51.178;4.450;2022-07-17T02:47:11;16.10;99.90
25937;DHT22;13733;51.178;4.450;2022-07-17T02:49:36;16.10;99.90
25937;DHT22;13733;51.178;4.450;2022-07-17T02:52:02;16.00;99.90
25937;DHT22;13733;51.178;4.450;2022-07-17T02:54:27;15.90;99.90
25937;DHT22;13733;51.178;4.450;2022-07-17T02:56:53;15.80;99.90
25937;DHT22;13733;51.178;4.450;2022-07-17T02:59:19;15.80;99.90
25937;DHT22;13733;51.178;4.450;2022-07-17T03:01:44;15.80;99.90
25937;DHT22;13733;51.178;4.450;2022-07-17T03:04:10;15.80;99.90
25937;DHT22;13733;51.178;4.450;2022-07-17T03:06:35;15.90;99.90
25937;DHT22;13733;51.178;4.450;2022-07-17T03:09:01;15.80;99.90
25937;DHT22;13733;51.178;4.450;2022-07-17T03:11:26;15.90;99.90
25937;DHT22;13733;51.178;4.450;2022-07-17T03:13:52;15.80;99.90
25937;DHT22;13733;51.178;4.450;2022-07-17T03:16:18;15.80;99.90
25937;DHT22;13733;51.178;4.450;2022-07-17T03:18:43;15.80;99.90
25937;DHT22;13733;51.178;4.450;2022-07-17T03:21:09;15.70;99.90
25937;DHT22;13733;51.178;4.450;2022-07-17T03:23:35;15.70;99.90
25937;DHT22;13733;51.178;4.450;2022-07-17T03:26:00;15.60;99.90
25937;DHT22;13733;51.178;4.450;2022-07-17T03:28:26;15.60;99.90
25937;DHT22;13733;51.178;4.450;2022-07-17T03:30:51;15.60;99.90
25937;DHT22;13733;51.178;4.450;2022-07-17T03:33:17;15.60;99.90
25937;DHT22;13733;51.178;4.450;2022-07-17T03:35:43;15.60;99.90
25937;DHT22;13733;51.178;4.450;2022-07-17T03:38:08;15.70;99.90
25937;DHT22;13733;51.178;4.450;2022-07-17T03:40:34;15.60;99.90
25937;DHT22;13733;51.178;4.450;2022-07-17T03:42:59;15.60;99.90
25937;DHT22;13733;51.178;4.450;2022-07-17T03:45:25;15.60;99.90
25937;DHT22;13733;51.178;4.450;2022-07-17T03:47:51;15.60;99.90
25937;DHT22;13733;51.178;4.450;2022-07-17T03:50:16;15.60;99.90
25937;DHT22;13733;51.178;4.450;2022-07-17T03:52:42;15.60;99.90
25937;DHT22;13733;51.178;4.450;2022-07-17T03:55:07;15.60;99.90
25937;DHT22;13733;51.178;4.450;2022-07-17T03:57:33;15.70;99.90
25937;DHT22;13733;51.178;4.450;2022-07-17T03:59:59;15.70;99.90
25937;DHT22;13733;51.178;4.450;2022-07-17T04:02:25;15.60;99.90
25937;DHT22;13733;51.178;4.450;2022-07-17T04:04:51;15.60;99.90
25937;DHT22;13733;51.178;4.450;2022-07-17T04:07:17;15.50;99.90
25937;DHT22;13733;51.178;4.450;2022-07-17T04:09:56;15.40;99.90
25937;DHT22;13733;51.178;4.450;2022-07-17T04:12:22;15.40;99.90
25937;DHT22;13733;51.178;4.450;2022-07-17T04:14:48;15.30;99.90
25937;DHT22;13733;51.178;4.450;2022-07-17T04:17:14;15.30;99.90
25937;DHT22;13733;51.178;4.450;2022-07-17T04:19:40;15.20;99.90
25937;DHT22;13733;51.178;4.450;2022-07-17T04:22:06;15.20;99.90
25937;DHT22;13733;51.178;4.450;2022-07-17T04:24:31;15.20;99.90
25937;DHT22;13733;51.178;4.450;2022-07-17T04:26:57;15.30;99.90
25937;DHT22;13733;51.178;4.450;2022-07-17T04:29:22;15.30;99.90
25937;DHT22;13733;51.178;4.450;2022-07-17T04:31:48;15.40;99.90
25937;DHT22;13733;51.178;4.450;2022-07-17T04:34:13;15.50;99.90
25937;DHT22;13733;51.178;4.450;2022-07-17T04:36:39;15.50;99.90
25937;DHT22;13733;51.178;4.450;2022-07-17T04:39:05;15.50;99.90
25937;DHT22;13733;51.178;4.450;2022-07-17T04:41:30;15.60;99.90
25937;DHT22;13733;51.178;4.450;2022-07-17T04:43:56;15.60;99.90
25937;DHT22;13733;51.178;4.450;2022-07-17T04:46:21;15.60;99.90
25937;DHT22;13733;51.178;4.450;2022-07-17T04:48:47;15.50;99.90
25937;DHT22;13733;51.178;4.450;2022-07-17T04:51:12;15.60;99.90
25937;DHT22;13733;51.178;4.450;2022-07-17T04:53:38;15.70;99.90
25937;DHT22;13733;51.178;4.450;2022-07-17T04:56:04;15.80;99.90
25937;DHT22;13733;51.178;4.450;2022-07-17T04:58:30;15.80;99.90
25937;DHT22;13733;51.178;4.450;2022-07-17T05:00:55;15.80;99.90
25937;DHT22;13733;51.178;4.450;2022-07-17T05:03:21;15.90;99.90
25937;DHT22;13733;51.178;4.450;2022-07-17T05:05:46;15.90;99.90
25937;DHT22;13733;51.178;4.450;2022-07-17T05:08:12;16.00;99.90
25937;DHT22;13733;51.178;4.450;2022-07-17T05:10:38;16.00;99.90
25937;DHT22;13733;51.178;4.450;2022-07-17T05:13:03;16.00;99.90
25937;DHT22;13733;51.178;4.450;2022-07-17T05:15:29;15.90;99.90
25937;DHT22;13733;51.178;4.450;2022-07-17T05:17:54;16.00;99.90
25937;DHT22;13733;51.178;4.450;2022-07-17T05:20:21;16.10;99.90
25937;DHT22;13733;51.178;4.450;2022-07-17T05:22:47;16.10;99.90
25937;DHT22;13733;51.178;4.450;2022-07-17T05:25:12;16.20;99.90
25937;DHT22;13733;51.178;4.450;2022-07-17T05:27:38;16.30;99.90
25937;DHT22;13733;51.178;4.450;2022-07-17T05:30:04;16.30;99.90
25937;DHT22;13733;51.178;4.450;2022-07-17T05:32:29;16.40;99.90
25937;DHT22;13733;51.178;4.450;2022-07-17T05:34:55;16.40;99.90
25937;DHT22;13733;51.178;4.450;2022-07-17T05:37:21;16.40;99.90
25937;DHT22;13733;51.178;4.450;2022-07-17T05:39:46;16.50;99.90
25937;DHT22;13733;51.178;4.450;2022-07-17T05:42:12;16.50;99.90
25937;DHT22;13733;51.178;4.450;2022-07-17T05:44:37;16.60;99.90
25937;DHT22;13733;51.178;4.450;2022-07-17T05:47:03;16.70;99.90
25937;DHT22;13733;51.178;4.450;2022-07-17T05:49:28;16.70;99.90
25937;DHT22;13733;51.178;4.450;2022-07-17T05:51:54;16.70;99.90
25937;DHT22;13733;51.178;4.450;2022-07-17T05:54:20;16.80;99.90
25937;DHT22;13733;51.178;4.450;2022-07-17T05:56:45;16.80;99.90
25937;DHT22;13733;51.178;4.450;2022-07-17T05:59:11;16.80;99.90
25937;DHT22;13733;51.178;4.450;2022-07-17T06:01:36;16.90;99.90
25937;DHT22;13733;51.178;4.450;2022-07-17T06:04:02;17.00;99.90
25937;DHT22;13733;51.178;4.450;2022-07-17T06:06:28;17.10;99.90
25937;DHT22;13733;51.178;4.450;2022-07-17T06:08:53;17.20;99.90
25937;DHT22;13733;51.178;4.450;2022-07-17T06:11:19;17.20;99.90
25937;DHT22;13733;51.178;4.450;2022-07-17T06:13:44;17.30;99.90
25937;DHT22;13733;51.178;4.450;2022-07-17T06:16:10;17.30;99.90
25937;DHT22;13733;51.178;4.450;2022-07-17T06:18:36;17.50;99.90
25937;DHT22;13733;51.178;4.450;2022-07-17T06:21:01;17.50;99.90
25937;DHT22;13733;51.178;4.450;2022-07-17T06:23:27;17.50;99.90
25937;DHT22;13733;51.178;4.450;2022-07-17T06:25:52;17.70;99.90
25937;DHT22;13733;51.178;4.450;2022-07-17T06:28:18;17.70;99.90
25937;DHT22;13733;51.178;4.450;2022-07-17T06:30:43;17.80;99.90
25937;DHT22;13733;51.178;4.450;2022-07-17T06:33:09;17.90;99.90
25937;DHT22;13733;51.178;4.450;2022-07-17T06:35:35;18.00;99.90
25937;DHT22;13733;51.178;4.450;2022-07-17T06:38:02;18.10;99.90
25937;DHT22;13733;51.178;4.450;2022-07-17T06:40:27;18.20;99.90
25937;DHT22;13733;51.178;4.450;2022-07-17T06:42:53;18.30;99.90
25937;DHT22;13733;51.178;4.450;2022-07-17T06:45:19;18.40;99.90
25937;DHT22;13733;51.178;4.450;2022-07-17T06:47:44;18.40;99.90
25937;DHT22;13733;51.178;4.450;2022-07-17T06:50:10;18.50;99.90
25937;DHT22;13733;51.178;4.450;2022-07-17T06:52:36;18.60;99.90
25937;DHT22;13733;51.178;4.450;2022-07-17T06:55:02;18.70;99.90
25937;DHT22;13733;51.178;4.450;2022-07-17T06:57:27;18.80;99.90
25937;DHT22;13733;51.178;4.450;2022-07-17T06:59:53;18.90;99.90
25937;DHT22;13733;51.178;4.450;2022-07-17T07:02:19;19.00;99.90
25937;DHT22;13733;51.178;4.450;2022-07-17T07:04:44;18.90;99.90
25937;DHT22;13733;51.178;4.450;2022-07-17T07:07:10;18.80;99.90
25937;DHT22;13733;51.178;4.450;2022-07-17T07:09:36;18.90;99.90
25937;DHT22;13733;51.178;4.450;2022-07-17T07:12:02;19.00;99.90
25937;DHT22;13733;51.178;4.450;2022-07-17T07:14:28;19.10;99.90
25937;DHT22;13733;51.178;4.450;2022-07-17T07:16:53;19.40;99.90
25937;DHT22;13733;51.178;4.450;2022-07-17T07:19:19;19.50;99.90
25937;DHT22;13733;51.178;4.450;2022-07-17T07:21:44;19.60;99.90
25937;DHT22;13733;51.178;4.450;2022-07-17T07:24:10;19.60;99.90
25937;DHT22;13733;51.178;4.450;2022-07-17T07:26:36;19.70;99.90
25937;DHT22;13733;51.178;4.450;2022-07-17T07:29:01;19.90;99.90
25937;DHT22;13733;51.178;4.450;2022-07-17T07:31:27;20.00;99.90
25937;DHT22;13733;51.178;4.450;2022-07-17T07:33:52;20.00;99.90
25937;DHT22;13733;51.178;4.450;2022-07-17T07:36:18;20.10;99.90
25937;DHT22;13733;51.178;4.450;2022-07-17T07:38:43;20.30;99.90
25937;DHT22;13733;51.178;4.450;2022-07-17T07:41:11;20.40;99.90
25937;DHT22;13733;51.178;4.450;2022-07-17T07:43:37;20.40;99.90
25937;DHT22;13733;51.178;4.450;2022-07-17T07:46:03;20.30;99.90
25937;DHT22;13733;51.178;4.450;2022-07-17T07:48:29;20.50;99.90
25937;DHT22;13733;51.178;4.450;2022-07-17T07:50:55;20.70;99.90
25937;DHT22;13733;51.178;4.450;2022-07-17T07:53:20;20.90;99.90
25937;DHT22;13733;51.178;4.450;2022-07-17T07:55:46;21.00;99.90
25937;DHT22;13733;51.178;4.450;2022-07-17T07:58:12;21.00;99.90
25937;DHT22;13733;51.178;4.450;2022-07-17T08:00:38;21.10;99.90
25937;DHT22;13733;51.178;4.450;2022-07-17T08:03:05;21.30;99.90
25937;DHT22;13733;51.178;4.450;2022-07-17T08:05:31;20.90;99.90
25937;DHT22;13733;51.178;4.450;2022-07-17T08:07:57;20.80;99.90
25937;DHT22;13733;51.178;4.450;2022-07-17T08:10:22;20.70;99.90
25937;DHT22;13733;51.178;4.450;2022-07-17T08:12:48;20.90;99.90
25937;DHT22;13733;51.178;4.450;2022-07-17T08:15:18;21.20;99.90
25937;DHT22;13733;51.178;4.450;2022-07-17T08:17:44;21.20;99.90
25937;DHT22;13733;51.178;4.450;2022-07-17T08:20:09;21.00;99.90
25937;DHT22;13733;51.178;4.450;2022-07-17T08:22:35;21.00;99.90
25937;DHT22;13733;51.178;4.450;2022-07-17T08:25:01;21.30;99.90
25937;DHT22;13733;51.178;4.450;2022-07-17T08:27:26;21.60;99.90
25937;DHT22;13733;51.178;4.450;2022-07-17T08:29:52;21.80;99.90
25937;DHT22;13733;51.178;4.450;2022-07-17T08:32:18;21.60;99.90
25937;DHT22;13733;51.178;4.450;2022-07-17T08:34:43;21.50;99.90
25937;DHT22;13733;51.178;4.450;2022-07-17T08:37:09;21.70;99.90
25937;DHT22;13733;51.178;4.450;2022-07-17T08:39:35;21.90;99.90
25937;DHT22;13733;51.178;4.450;2022-07-17T08:42:03;21.90;99.90
25937;DHT22;13733;51.178;4.450;2022-07-17T08:44:29;22.00;99.90
25937;DHT22;13733;51.178;4.450;2022-07-17T08:46:54;22.00;99.90
25937;DHT22;13733;51.178;4.450;2022-07-17T08:49:21;22.00;99.90
25937;DHT22;13733;51.178;4.450;2022-07-17T08:51:48;22.20;99.90
25937;DHT22;13733;51.178;4.450;2022-07-17T08:54:14;22.40;99.00
25937;DHT22;13733;51.178;4.450;2022-07-17T08:56:39;22.60;98.20
25937;DHT22;13733;51.178;4.450;2022-07-17T08:59:05;22.60;97.20
25937;DHT22;13733;51.178;4.450;2022-07-17T09:01:30;22.80;97.30
25937;DHT22;13733;51.178;4.450;2022-07-17T09:03:57;23.00;96.40
25937;DHT22;13733;51.178;4.450;2022-07-17T09:06:25;22.80;96.50
25937;DHT22;13733;51.178;4.450;2022-07-17T09:09:06;22.60;97.30
25937;DHT22;13733;51.178;4.450;2022-07-17T09:14:10;22.60;97.00
25937;DHT22;13733;51.178;4.450;2022-07-17T09:16:46;22.60;97.90
25937;DHT22;13733;51.178;4.450;2022-07-17T09:19:12;22.50;97.50
25937;DHT22;13733;51.178;4.450;2022-07-17T09:21:48;22.70;96.70
25937;DHT22;13733;51.178;4.450;2022-07-17T09:24:15;22.70;96.80
25937;DHT22;13733;51.178;4.450;2022-07-17T09:26:43;22.90;96.20
25937;DHT22;13733;51.178;4.450;2022-07-17T09:29:10;23.10;95.80
25937;DHT22;13733;51.178;4.450;2022-07-17T09:31:37;23.50;95.60
25937;DHT22;13733;51.178;4.450;2022-07-17T09:34:03;23.50;94.90
25937;DHT22;13733;51.178;4.450;2022-07-17T09:36:28;23.60;94.60
25937;DHT22;13733;51.178;4.450;2022-07-17T09:38:55;23.50;94.50
25937;DHT22;13733;51.178;4.450;2022-07-17T09:41:22;23.60;93.70
25937;DHT22;13733;51.178;4.450;2022-07-17T09:43:48;23.50;93.70
25937;DHT22;13733;51.178;4.450;2022-07-17T09:46:23;23.70;93.70
25937;DHT22;13733;51.178;4.450;2022-07-17T09:48:59;23.90;93.10
25937;DHT22;13733;51.178;4.450;2022-07-17T09:51:26;24.10;92.90
25937;DHT22;13733;51.178;4.450;2022-07-17T09:53:56;24.50;92.10
25937;DHT22;13733;51.178;4.450;2022-07-17T09:56:24;24.60;91.20
25937;DHT22;13733;51.178;4.450;2022-07-17T09:58:51;24.70;91.30
25937;DHT22;13733;51.178;4.450;2022-07-17T10:01:17;24.90;90.50
25937;DHT22;13733;51.178;4.450;2022-07-17T10:03:43;25.00;89.70
25937;DHT22;13733;51.178;4.450;2022-07-17T10:06:10;25.00;90.00
25937;DHT22;13733;51.178;4.450;2022-07-17T10:08:37;25.00;89.40
25937;DHT22;13733;51.178;4.450;2022-07-17T10:11:07;24.90;90.10
25937;DHT22;13733;51.178;4.450;2022-07-17T10:13:33;24.90;90.50
25937;DHT22;13733;51.178;4.450;2022-07-17T10:16:00;24.90;90.70
25937;DHT22;13733;51.178;4.450;2022-07-17T10:18:42;24.90;90.30
25937;DHT22;13733;51.178;4.450;2022-07-17T10:23:34;25.10;90.40
25937;DHT22;13733;51.178;4.450;2022-07-17T10:25:59;25.30;90.10
25937;DHT22;13733;51.178;4.450;2022-07-17T10:28:25;25.40;89.70
25937;DHT22;13733;51.178;4.450;2022-07-17T10:31:02;25.70;87.60
25937;DHT22;13733;51.178;4.450;2022-07-17T10:33:28;25.80;86.10
25937;DHT22;13733;51.178;4.450;2022-07-17T10:35:53;26.10;85.10
25937;DHT22;13733;51.178;4.450;2022-07-17T10:38:19;26.30;85.20
25937;DHT22;13733;51.178;4.450;2022-07-17T10:40:46;26.30;84.90
25937;DHT22;13733;51.178;4.450;2022-07-17T10:43:11;26.40;84.70
25937;DHT22;13733;51.178;4.450;2022-07-17T10:45:38;26.60;83.50
25937;DHT22;13733;51.178;4.450;2022-07-17T10:48:17;26.60;81.40
25937;DHT22;13733;51.178;4.450;2022-07-17T10:53:23;26.80;80.20
25937;DHT22;13733;51.178;4.450;2022-07-17T11:03:22;27.30;76.30
25937;DHT22;13733;51.178;4.450;2022-07-17T11:05:48;27.20;75.70
25937;DHT22;13733;51.178;4.450;2022-07-17T11:08:13;27.70;74.60
25937;DHT22;13733;51.178;4.450;2022-07-17T11:10:39;28.40;72.40
25937;DHT22;13733;51.178;4.450;2022-07-17T11:13:09;29.30;68.80
25937;DHT22;13733;51.178;4.450;2022-07-17T11:15:40;30.10;65.80
25937;DHT22;13733;51.178;4.450;2022-07-17T11:18:16;30.60;61.50
25937;DHT22;13733;51.178;4.450;2022-07-17T11:21:00;31.00;59.20
25937;DHT22;13733;51.178;4.450;2022-07-17T11:23:27;31.30;57.60
25937;DHT22;13733;51.178;4.450;2022-07-17T11:26:01;31.70;54.30
25937;DHT22;13733;51.178;4.450;2022-07-17T11:30:57;32.60;50.80
25937;DHT22;13733;51.178;4.450;2022-07-17T11:33:22;32.90;48.90
25937;DHT22;13733;51.178;4.450;2022-07-17T11:35:48;33.20;46.90
25937;DHT22;13733;51.178;4.450;2022-07-17T11:38:14;33.40;46.00
25937;DHT22;13733;51.178;4.450;2022-07-17T11:40:46;33.90;44.00
25937;DHT22;13733;51.178;4.450;2022-07-17T11:43:12;33.90;42.10
25937;DHT22;13733;51.178;4.450;2022-07-17T11:45:38;33.80;42.50
25937;DHT22;13733;51.178;4.450;2022-07-17T11:48:05;34.10;41.30
25937;DHT22;13733;51.178;4.450;2022-07-17T11:50:30;34.10;40.00
25937;DHT22;13733;51.178;4.450;2022-07-17T11:52:59;34.20;40.20
25937;DHT22;13733;51.178;4.450;2022-07-17T11:55:34;34.60;39.00
25937;DHT22;13733;51.178;4.450;2022-07-17T11:57:59;34.90;38.60
25937;DHT22;13733;51.178;4.450;2022-07-17T12:00:25;35.60;38.80
25937;DHT22;13733;51.178;4.450;2022-07-17T12:03:01;36.00;36.70
25937;DHT22;13733;51.178;4.450;2022-07-17T12:05:27;35.90;36.60
25937;DHT22;13733;51.178;4.450;2022-07-17T12:07:53;35.70;36.20
25937;DHT22;13733;51.178;4.450;2022-07-17T12:10:23;36.10;36.30
25937;DHT22;13733;51.178;4.450;2022-07-17T12:12:59;36.40;34.10
25937;DHT22;13733;51.178;4.450;2022-07-17T12:18:02;36.20;34.30
25937;DHT22;13733;51.178;4.450;2022-07-17T12:20:39;36.60;33.30
25937;DHT22;13733;51.178;4.450;2022-07-17T12:23:05;36.60;33.20
25937;DHT22;13733;51.178;4.450;2022-07-17T12:25:31;36.50;32.30
25937;DHT22;13733;51.178;4.450;2022-07-17T12:27:56;36.20;33.60
25937;DHT22;13733;51.178;4.450;2022-07-17T12:30:22;36.60;33.40
25937;DHT22;13733;51.178;4.450;2022-07-17T12:32:48;36.80;31.90
25937;DHT22;13733;51.178;4.450;2022-07-17T12:35:14;36.80;31.60
25937;DHT22;13733;51.178;4.450;2022-07-17T12:37:40;36.40;30.90
25937;DHT22;13733;51.178;4.450;2022-07-17T12:40:07;36.70;31.00
25937;DHT22;13733;51.178;4.450;2022-07-17T12:42:33;37.00;30.10
25937;DHT22;13733;51.178;4.450;2022-07-17T12:44:58;37.10;30.00
25937;DHT22;13733;51.178;4.450;2022-07-17T12:47:24;37.30;29.90
25937;DHT22;13733;51.178;4.450;2022-07-17T12:49:49;37.90;29.40
25937;DHT22;13733;51.178;4.450;2022-07-17T12:52:15;38.00;28.30
25937;DHT22;13733;51.178;4.450;2022-07-17T12:54:41;38.00;28.80
25937;DHT22;13733;51.178;4.450;2022-07-17T12:57:06;38.60;28.50
25937;DHT22;13733;51.178;4.450;2022-07-17T12:59:33;39.00;27.00
25937;DHT22;13733;51.178;4.450;2022-07-17T13:01:58;38.60;27.60
25937;DHT22;13733;51.178;4.450;2022-07-17T13:04:24;38.90;27.40
25937;DHT22;13733;51.178;4.450;2022-07-17T13:06:50;39.00;27.20
25937;DHT22;13733;51.178;4.450;2022-07-17T13:09:15;39.30;26.40
25937;DHT22;13733;51.178;4.450;2022-07-17T13:11:42;38.90;26.30
25937;DHT22;13733;51.178;4.450;2022-07-17T13:14:07;39.50;26.00
25937;DHT22;13733;51.178;4.450;2022-07-17T13:16:40;39.90;25.80
25937;DHT22;13733;51.178;4.450;2022-07-17T13:19:06;39.80;26.40
25937;DHT22;13733;51.178;4.450;2022-07-17T13:21:32;40.20;26.50
25937;DHT22;13733;51.178;4.450;2022-07-17T13:23:58;39.90;26.70
25937;DHT22;13733;51.178;4.450;2022-07-17T13:26:23;40.20;26.30
25937;DHT22;13733;51.178;4.450;2022-07-17T13:28:49;40.50;26.10
25937;DHT22;13733;51.178;4.450;2022-07-17T13:31:15;40.70;26.20
25937;DHT22;13733;51.178;4.450;2022-07-17T13:33:41;40.80;25.90
25937;DHT22;13733;51.178;4.450;2022-07-17T13:36:07;40.90;25.30
25937;DHT22;13733;51.178;4.450;2022-07-17T13:38:33;41.40;24.40
25937;DHT22;13733;51.178;4.450;2022-07-17T13:40:58;41.60;24.30
25937;DHT22;13733;51.178;4.450;2022-07-17T13:43:25;41.40;23.50
25937;DHT22;13733;51.178;4.450;2022-07-17T13:45:50;41.50;22.60
25937;DHT22;13733;51.178;4.450;2022-07-17T13:48:16;41.30;22.00
25937;DHT22;13733;51.178;4.450;2022-07-17T13:50:41;41.40;23.30
25937;DHT22;13733;51.178;4.450;2022-07-17T13:53:07;41.60;22.80
25937;DHT22;13733;51.178;4.450;2022-07-17T13:55:33;41.80;22.60
25937;DHT22;13733;51.178;4.450;2022-07-17T13:57:58;42.00;22.80
25937;DHT22;13733;51.178;4.450;2022-07-17T14:00:24;42.50;22.60
25937;DHT22;13733;51.178;4.450;2022-07-17T14:02:50;42.70;22.30
25937;DHT22;13733;51.178;4.450;2022-07-17T14:05:16;42.40;22.80
25937;DHT22;13733;51.178;4.450;2022-07-17T14:07:41;42.30;22.40
25937;DHT22;13733;51.178;4.450;2022-07-17T14:10:08;42.10;22.10
25937;DHT22;13733;51.178;4.450;2022-07-17T14:12:35;42.30;22.60
25937;DHT22;13733;51.178;4.450;2022-07-17T14:15:00;42.40;22.60
25937;DHT22;13733;51.178;4.450;2022-07-17T14:17:26;41.70;22.80
25937;DHT22;13733;51.178;4.450;2022-07-17T14:19:52;41.70;22.70
25937;DHT22;13733;51.178;4.450;2022-07-17T14:22:17;42.10;22.20
25937;DHT22;13733;51.178;4.450;2022-07-17T14:24:43;42.50;22.00
25937;DHT22;13733;51.178;4.450;2022-07-17T14:27:08;42.30;21.70
25937;DHT22;13733;51.178;4.450;2022-07-17T14:29:34;41.50;22.40
25937;DHT22;13733;51.178;4.450;2022-07-17T14:31:59;42.10;22.40
25937;DHT22;13733;51.178;4.450;2022-07-17T14:34:25;42.30;21.70
25937;DHT22;13733;51.178;4.450;2022-07-17T14:36:51;42.60;21.00
25937;DHT22;13733;51.178;4.450;2022-07-17T14:39:17;42.90;21.50
25937;DHT22;13733;51.178;4.450;2022-07-17T14:41:44;42.90;20.90
25937;DHT22;13733;51.178;4.450;2022-07-17T14:44:12;43.30;21.20
25937;DHT22;13733;51.178;4.450;2022-07-17T14:46:39;43.30;20.90
25937;DHT22;13733;51.178;4.450;2022-07-17T14:49:04;43.20;21.20
25937;DHT22;13733;51.178;4.450;2022-07-17T14:51:30;43.80;20.90
25937;DHT22;13733;51.178;4.450;2022-07-17T14:53:56;44.00;20.50
25937;DHT22;13733;51.178;4.450;2022-07-17T14:56:21;43.70;20.00
25937;DHT22;13733;51.178;4.450;2022-07-17T14:58:47;44.10;20.00
25937;DHT22;13733;51.178;4.450;2022-07-17T15:01:12;44.30;19.60
25937;DHT22;13733;51.178;4.450;2022-07-17T15:03:38;43.90;19.40
25937;DHT22;13733;51.178;4.450;2022-07-17T15:06:04;43.80;19.50
25937;DHT22;13733;51.178;4.450;2022-07-17T15:08:29;43.60;20.00
25937;DHT22;13733;51.178;4.450;2022-07-17T15:10:56;43.60;20.10
25937;DHT22;13733;51.178;4.450;2022-07-17T15:13:22;43.80;20.10
25937;DHT22;13733;51.178;4.450;2022-07-17T15:15:48;44.00;19.90
25937;DHT22;13733;51.178;4.450;2022-07-17T15:18:13;43.70;19.40
25937;DHT22;13733;51.178;4.450;2022-07-17T15:20:39;43.60;19.50
25937;DHT22;13733;51.178;4.450;2022-07-17T15:23:05;43.20;20.30
25937;DHT22;13733;51.178;4.450;2022-07-17T15:25:30;42.90;20.40
25937;DHT22;13733;51.178;4.450;2022-07-17T15:27:56;42.40;20.70
25937;DHT22;13733;51.178;4.450;2022-07-17T15:30:21;42.50;21.30
25937;DHT22;13733;51.178;4.450;2022-07-17T15:32:47;42.70;21.00
25937;DHT22;13733;51.178;4.450;2022-07-17T15:35:13;42.60;20.50
25937;DHT22;13733;51.178;4.450;2022-07-17T15:37:38;42.90;20.50
25937;DHT22;13733;51.178;4.450;2022-07-17T15:40:04;43.60;20.60
25937;DHT22;13733;51.178;4.450;2022-07-17T15:42:30;44.00;20.30
25937;DHT22;13733;51.178;4.450;2022-07-17T15:44:55;44.50;19.90
25937;DHT22;13733;51.178;4.450;2022-07-17T15:47:21;44.20;20.00